Time;durP1;ratioP1;P1;durP2;ratioP2;P2;SDS_P1;SDS_P2;PMS_P1;PMS_P2;Temp;Humidity;BMP_temperature;BMP_pressure;BME280_temperature;BME280_humidity;BME280_pressure;Samples;Min_cycle;Max_cycle;Signal;HPM_P1;HPM_P2
2021/07/18 00:00:31;;;;;;;22.58;10.85;;;;;;;;;;6356818;22;20022;-87
2021/07/18 00:02:58;;;;;;;25.13;10.00;;;;;;;;;;6328567;22;20023;-86
2021/07/18 00:05:30;;;;;;;21.30;10.45;;;;;;;;;;6355582;22;20010;-86
2021/07/18 00:08:01;;;;;;;17.67;9.93;;;;;;;;;;6326650;22;20026;-85
2021/07/18 00:10:27;;;;;;;25.92;10.20;;;;;;;;;;6326728;22;20033;-85
2021/07/18 00:12:59;;;;;;;26.38;10.55;;;;;;;;;;6327919;22;20038;-86
2021/07/18 00:15:26;;;;;;;22.40;11.57;;;;;;;;;;6327963;22;20015;-86
2021/07/18 00:17:52;;;;;;;28.83;12.68;;;;;;;;;;6354403;22;20240;-86
2021/07/18 00:20:19;;;;;;;22.02;11.32;;;;;;;;;;6353200;22;20027;-86
2021/07/18 00:22:49;;;;;;;19.42;9.77;;;;;;;;;;6327826;22;20050;-86
2021/07/18 00:25:16;;;;;;;20.70;11.35;;;;;;;;;;6355441;22;20074;-86
2021/07/18 00:27:42;;;;;;;23.63;10.73;;;;;;;;;;6328140;22;20027;-86
2021/07/18 00:30:09;;;;;;;25.38;12.05;;;;;;;;;;6353421;22;20058;-86
2021/07/18 00:32:43;;;;;;;31.15;12.45;;;;;;;;;;6328644;22;20026;-86
2021/07/18 00:35:09;;;;;;;29.40;12.07;;;;;;;;;;6353449;22;20204;-86
2021/07/18 00:37:37;;;;;;;22.77;11.77;;;;;;;;;;6354246;22;20129;-86
2021/07/18 00:40:09;;;;;;;21.48;10.88;;;;;;;;;;6328128;22;20070;-86
2021/07/18 00:42:35;;;;;;;32.45;13.30;;;;;;;;;;6354640;22;20057;-86
2021/07/18 00:45:03;;;;;;;25.80;11.95;;;;;;;;;;6353838;22;20022;-86
2021/07/18 00:47:40;;;;;;;31.38;12.57;;;;;;;;;;6327930;22;20015;-86
2021/07/18 00:50:08;;;;;;;34.50;12.95;;;;;;;;;;6333070;22;20045;-86
2021/07/18 00:52:35;;;;;;;29.50;11.82;;;;;;;;;;6334681;22;20022;-86
2021/07/18 00:55:02;;;;;;;26.80;12.35;;;;;;;;;;6333894;22;20059;-86
2021/07/18 00:57:29;;;;;;;26.77;11.52;;;;;;;;;;6356032;22;20029;-86
2021/07/18 00:59:55;;;;;;;27.40;11.73;;;;;;;;;;6355284;22;20023;-86
2021/07/18 01:02:22;;;;;;;36.97;12.05;;;;;;;;;;6355640;22;20014;-86
2021/07/18 01:04:49;;;;;;;27.88;11.48;;;;;;;;;;6355389;22;20049;-86
2021/07/18 01:07:15;;;;;;;25.80;11.32;;;;;;;;;;6328953;22;20030;-86
2021/07/18 01:09:42;;;;;;;21.55;11.00;;;;;;;;;;6355936;22;20027;-85
2021/07/18 01:12:09;;;;;;;25.75;11.55;;;;;;;;;;6356777;22;20029;-86
2021/07/18 01:14:35;;;;;;;19.73;10.93;;;;;;;;;;6356401;22;20034;-86
2021/07/18 01:17:02;;;;;;;27.58;10.25;;;;;;;;;;6358028;22;20035;-86
2021/07/18 01:19:32;;;;;;;25.58;10.77;;;;;;;;;;6330954;22;20022;-86
2021/07/18 01:21:59;;;;;;;24.15;10.82;;;;;;;;;;6356919;22;20023;-86
2021/07/18 01:24:28;;;;;;;23.60;10.45;;;;;;;;;;6356183;22;20034;-86
2021/07/18 01:26:55;;;;;;;24.25;11.15;;;;;;;;;;6323193;22;20073;-86
2021/07/18 01:29:23;;;;;;;27.40;10.77;;;;;;;;;;6324028;22;20074;-86
2021/07/18 01:31:49;;;;;;;19.42;10.23;;;;;;;;;;6323333;22;20415;-86
2021/07/18 01:34:16;;;;;;;22.35;11.43;;;;;;;;;;6322969;22;20028;-87
2021/07/18 01:36:42;;;;;;;27.52;11.20;;;;;;;;;;6322309;22;20049;-86
2021/07/18 01:39:10;;;;;;;26.25;10.73;;;;;;;;;;6322833;22;20023;-86
2021/07/18 01:41:42;;;;;;;23.55;10.45;;;;;;;;;;6323511;22;20108;-86
2021/07/18 01:44:09;;;;;;;25.83;11.10;;;;;;;;;;6324414;22;20031;-86
2021/07/18 01:46:36;;;;;;;17.83;9.73;;;;;;;;;;6323922;22;20023;-86
2021/07/18 01:49:06;;;;;;;24.30;10.30;;;;;;;;;;6329294;22;20022;-86
2021/07/18 01:51:34;;;;;;;24.42;11.38;;;;;;;;;;6331739;22;20011;-86
2021/07/18 01:54:03;;;;;;;25.45;10.23;;;;;;;;;;6328314;22;20046;-86
2021/07/18 01:56:30;;;;;;;27.10;10.77;;;;;;;;;;6322316;22;20023;-86
2021/07/18 01:58:57;;;;;;;25.63;10.00;;;;;;;;;;6322743;22;20096;-86
2021/07/18 02:01:28;;;;;;;27.02;9.95;;;;;;;;;;6321858;22;20031;-86
2021/07/18 02:03:55;;;;;;;27.63;11.10;;;;;;;;;;6322707;22;20054;-86
2021/07/18 02:06:24;;;;;;;19.95;10.82;;;;;;;;;;6322237;22;20019;-86
2021/07/18 02:09:06;;;;;;;26.80;11.77;;;;;;;;;;6323193;22;20051;-86
2021/07/18 02:11:33;;;;;;;23.60;10.88;;;;;;;;;;6322943;22;20045;-86
2021/07/18 02:13:59;;;;;;;24.85;10.63;;;;;;;;;;6321895;22;20075;-86
2021/07/18 02:16:29;;;;;;;26.15;11.50;;;;;;;;;;6322911;22;20038;-86
2021/07/18 02:19:04;;;;;;;24.02;10.70;;;;;;;;;;6321300;22;20397;-86
2021/07/18 02:21:30;;;;;;;31.08;11.18;;;;;;;;;;6319998;22;20019;-86
2021/07/18 02:23:57;;;;;;;24.92;11.88;;;;;;;;;;6321760;22;20280;-86
2021/07/18 02:26:27;;;;;;;25.35;12.15;;;;;;;;;;6317823;22;20023;-86
2021/07/18 02:28:53;;;;;;;26.38;11.98;;;;;;;;;;6318282;22;20043;-86
2021/07/18 02:31:21;;;;;;;27.02;11.30;;;;;;;;;;6318510;22;20416;-86
2021/07/18 02:33:47;;;;;;;26.92;12.77;;;;;;;;;;6318188;22;20037;-86
2021/07/18 02:36:13;;;;;;;29.60;11.48;;;;;;;;;;6318536;22;20027;-86
2021/07/18 02:38:40;;;;;;;29.70;11.48;;;;;;;;;;6317898;22;20024;-86
2021/07/18 02:41:06;;;;;;;25.02;11.70;;;;;;;;;;6318180;22;20020;-86
2021/07/18 02:43:33;;;;;;;23.17;11.65;;;;;;;;;;6320219;22;20055;-86
2021/07/18 02:45:59;;;;;;;25.58;10.93;;;;;;;;;;6318238;22;20023;-86
2021/07/18 02:48:26;;;;;;;30.17;12.00;;;;;;;;;;6319743;22;20073;-86
2021/07/18 02:50:52;;;;;;;29.55;11.60;;;;;;;;;;6316929;22;20023;-86
2021/07/18 02:53:19;;;;;;;29.52;12.02;;;;;;;;;;6315971;22;20050;-86
2021/07/18 02:55:45;;;;;;;19.80;10.88;;;;;;;;;;6314693;22;20042;-86
2021/07/18 02:58:12;;;;;;;27.98;11.07;;;;;;;;;;6316187;22;20023;-86
2021/07/18 03:00:39;;;;;;;23.83;11.10;;;;;;;;;;6315608;22;20019;-86
2021/07/18 03:03:06;;;;;;;25.73;11.23;;;;;;;;;;6315683;22;20027;-86
2021/07/18 03:05:33;;;;;;;29.67;11.90;;;;;;;;;;6313721;22;20054;-85
2021/07/18 03:07:59;;;;;;;25.00;12.32;;;;;;;;;;6316149;22;20440;-86
2021/07/18 03:10:26;;;;;;;28.95;12.52;;;;;;;;;;6314795;22;20391;-86
2021/07/18 03:12:52;;;;;;;29.80;11.15;;;;;;;;;;6315548;22;20023;-86
2021/07/18 03:15:19;;;;;;;26.20;11.85;;;;;;;;;;6316176;22;20023;-86
2021/07/18 03:17:46;;;;;;;29.45;11.80;;;;;;;;;;6317085;22;20042;-86
2021/07/18 03:20:13;;;;;;;24.35;12.43;;;;;;;;;;6315932;22;20023;-86
2021/07/18 03:22:40;;;;;;;18.80;10.35;;;;;;;;;;6318039;22;20080;-86
2021/07/18 03:25:08;;;;;;;21.60;11.07;;;;;;;;;;6318395;22;20074;-86
2021/07/18 03:27:35;;;;;;;21.73;11.25;;;;;;;;;;6344438;22;20022;-86
2021/07/18 03:30:06;;;;;;;35.30;12.57;;;;;;;;;;6321937;22;20026;-86
2021/07/18 03:32:33;;;;;;;28.38;13.07;;;;;;;;;;6348038;22;20027;-86
2021/07/18 03:35:01;;;;;;;26.55;11.80;;;;;;;;;;6347913;22;20034;-86
2021/07/18 03:37:28;;;;;;;23.25;11.50;;;;;;;;;;6348084;22;20026;-85
2021/07/18 03:39:54;;;;;;;27.80;11.18;;;;;;;;;;6349011;22;20027;-85
2021/07/18 03:42:21;;;;;;;24.30;11.15;;;;;;;;;;6348515;22;20022;-86
2021/07/18 03:44:47;;;;;;;24.83;10.57;;;;;;;;;;6350575;22;20026;-86
2021/07/18 03:47:14;;;;;;;31.60;12.07;;;;;;;;;;6350857;22;20070;-86
2021/07/18 03:49:44;;;;;;;28.92;12.20;;;;;;;;;;6350623;22;20326;-86
2021/07/18 03:52:10;;;;;;;27.95;12.15;;;;;;;;;;6348992;22;20090;-86
2021/07/18 03:54:36;;;;;;;26.00;11.07;;;;;;;;;;6322252;22;20289;-86
2021/07/18 03:57:03;;;;;;;23.05;11.38;;;;;;;;;;6351946;22;20026;-86
2021/07/18 03:59:30;;;;;;;22.40;11.68;;;;;;;;;;6351894;22;20197;-86
2021/07/18 04:01:56;;;;;;;21.85;11.05;;;;;;;;;;6352895;22;20023;-86
2021/07/18 04:04:25;;;;;;;28.90;12.38;;;;;;;;;;6355822;22;20064;-86
2021/07/18 04:07:05;;;;;;;30.95;11.98;;;;;;;;;;6356616;22;20070;-86
2021/07/18 04:09:31;;;;;;;27.70;11.73;;;;;;;;;;6358200;22;20023;-86
2021/07/18 04:11:58;;;;;;;30.40;11.90;;;;;;;;;;6359789;22;20030;-86
2021/07/18 04:14:25;;;;;;;21.35;12.18;;;;;;;;;;6318701;22;20019;-85
2021/07/18 04:16:51;;;;;;;19.38;10.82;;;;;;;;;;6317168;22;20233;-85
2021/07/18 04:19:18;;;;;;;22.83;10.88;;;;;;;;;;6343339;22;20035;-85
2021/07/18 04:21:45;;;;;;;25.25;10.45;;;;;;;;;;6346333;22;20027;-85
2021/07/18 04:24:11;;;;;;;19.90;10.07;;;;;;;;;;6346167;22;20447;-85
2021/07/18 04:26:38;;;;;;;24.02;9.45;;;;;;;;;;6312501;22;20092;-85
2021/07/18 04:29:05;;;;;;;24.15;9.98;;;;;;;;;;6312057;22;20059;-85
2021/07/18 04:31:32;;;;;;;21.63;9.77;;;;;;;;;;6310996;22;20027;-85
2021/07/18 04:33:58;;;;;;;18.73;9.77;;;;;;;;;;6322145;22;20050;-85
2021/07/18 04:36:26;;;;;;;18.98;9.82;;;;;;;;;;6321303;22;20277;-85
2021/07/18 04:38:53;;;;;;;20.83;9.70;;;;;;;;;;6324456;22;20023;-85
2021/07/18 04:41:20;;;;;;;19.13;9.50;;;;;;;;;;6320902;22;20035;-85
2021/07/18 04:43:47;;;;;;;17.83;7.05;;;;;;;;;;6314721;22;20031;-85
2021/07/18 04:46:14;;;;;;;13.48;7.97;;;;;;;;;;6313132;22;20019;-85
2021/07/18 04:48:41;;;;;;;12.52;6.63;;;;;;;;;;6314527;22;20019;-85
2021/07/18 04:51:14;;;;;;;9.93;6.03;;;;;;;;;;6312426;22;20023;-85
2021/07/18 04:53:43;;;;;;;17.10;7.20;;;;;;;;;;6313598;22;20065;-85
2021/07/18 04:56:09;;;;;;;11.77;6.72;;;;;;;;;;6312455;22;20034;-85
2021/07/18 04:58:37;;;;;;;19.30;7.25;;;;;;;;;;6314313;22;20038;-84
2021/07/18 05:01:05;;;;;;;12.13;6.07;;;;;;;;;;6319009;22;20023;-85
2021/07/18 05:03:32;;;;;;;13.00;6.35;;;;;;;;;;6328166;22;20062;-84
2021/07/18 05:05:59;;;;;;;10.88;6.10;;;;;;;;;;6328534;22;20023;-84
2021/07/18 05:08:26;;;;;;;9.48;6.03;;;;;;;;;;6316617;22;20027;-85
2021/07/18 05:10:53;;;;;;;13.65;6.50;;;;;;;;;;6314784;22;20080;-85
2021/07/18 05:13:20;;;;;;;14.25;6.88;;;;;;;;;;6315373;22;20023;-85
2021/07/18 05:15:47;;;;;;;10.30;6.15;;;;;;;;;;6312678;22;20047;-85
2021/07/18 05:18:17;;;;;;;12.43;5.70;;;;;;;;;;6316091;22;20027;-85
2021/07/18 05:20:44;;;;;;;11.55;6.03;;;;;;;;;;6314763;22;20233;-85
2021/07/18 05:23:11;;;;;;;12.50;6.60;;;;;;;;;;6328694;22;20011;-85
2021/07/18 05:25:40;;;;;;;16.58;5.97;;;;;;;;;;6330477;22;20015;-85
2021/07/18 05:28:08;;;;;;;11.95;6.10;;;;;;;;;;6323637;22;20087;-85
2021/07/18 05:30:37;;;;;;;12.02;5.72;;;;;;;;;;6316366;22;20074;-85
2021/07/18 05:33:05;;;;;;;17.27;6.60;;;;;;;;;;6317978;22;20118;-85
2021/07/18 05:35:31;;;;;;;15.23;6.50;;;;;;;;;;6317837;22;20062;-85
2021/07/18 05:37:59;;;;;;;17.05;6.53;;;;;;;;;;6318812;22;20303;-86
2021/07/18 05:40:27;;;;;;;19.23;6.32;;;;;;;;;;6317974;22;20090;-86
2021/07/18 05:42:54;;;;;;;12.43;4.47;;;;;;;;;;6324804;22;20010;-85
2021/07/18 05:45:21;;;;;;;13.65;5.07;;;;;;;;;;6335913;22;20010;-85
2021/07/18 05:47:54;;;;;;;11.30;4.82;;;;;;;;;;6362187;22;20026;-85
2021/07/18 05:50:21;;;;;;;7.25;3.83;;;;;;;;;;6335554;22;20060;-86
2021/07/18 05:52:54;;;;;;;11.98;4.13;;;;;;;;;;6358655;22;20034;-86
2021/07/18 05:55:23;;;;;;;14.77;3.95;;;;;;;;;;6317821;22;20033;-86
2021/07/18 05:57:51;;;;;;;12.02;3.55;;;;;;;;;;6317944;22;20041;-85
2021/07/18 06:00:18;;;;;;;5.43;2.75;;;;;;;;;;6317275;22;20044;-86
2021/07/18 06:02:46;;;;;;;13.63;2.90;;;;;;;;;;6317324;22;20022;-86
2021/07/18 06:05:13;;;;;;;6.72;3.10;;;;;;;;;;6316031;22;20029;-86
2021/07/18 06:07:39;;;;;;;6.78;3.22;;;;;;;;;;6327970;22;20014;-86
2021/07/18 06:10:06;;;;;;;10.98;3.25;;;;;;;;;;6334821;22;20034;-85
2021/07/18 06:12:33;;;;;;;7.80;2.78;;;;;;;;;;6361503;22;20018;-86
2021/07/18 06:15:00;;;;;;;7.32;3.45;;;;;;;;;;6352573;22;20045;-85
2021/07/18 06:17:27;;;;;;;8.27;3.25;;;;;;;;;;6317979;22;20027;-85
2021/07/18 06:19:54;;;;;;;9.48;3.40;;;;;;;;;;6318939;22;20320;-85
2021/07/18 06:22:20;;;;;;;7.05;3.45;;;;;;;;;;6344690;22;20023;-85
2021/07/18 06:24:47;;;;;;;10.30;4.68;;;;;;;;;;6321088;22;20027;-86
2021/07/18 06:27:14;;;;;;;10.02;4.10;;;;;;;;;;6312665;22;20107;-86
2021/07/18 06:29:40;;;;;;;9.73;3.95;;;;;;;;;;6314332;22;20053;-86
2021/07/18 06:32:07;;;;;;;7.75;3.58;;;;;;;;;;6312621;22;20023;-86
2021/07/18 06:34:33;;;;;;;7.78;3.45;;;;;;;;;;6310912;22;20023;-85
2021/07/18 06:37:00;;;;;;;12.05;4.10;;;;;;;;;;6309960;22;20050;-86
2021/07/18 06:39:27;;;;;;;10.75;3.75;;;;;;;;;;6310104;22;20027;-86
2021/07/18 06:41:53;;;;;;;8.40;3.42;;;;;;;;;;6309200;22;20385;-86
2021/07/18 06:44:19;;;;;;;9.02;3.50;;;;;;;;;;6308822;22;20023;-84
2021/07/18 06:46:46;;;;;;;7.07;3.30;;;;;;;;;;6311319;22;20027;-86
2021/07/18 06:49:13;;;;;;;9.05;3.35;;;;;;;;;;6310116;22;20030;-86
2021/07/18 06:51:39;;;;;;;8.77;3.92;;;;;;;;;;6309739;22;20068;-84
2021/07/18 06:54:07;;;;;;;15.57;3.83;;;;;;;;;;6309846;22;20027;-84
2021/07/18 06:56:34;;;;;;;10.57;4.03;;;;;;;;;;6310205;22;20041;-86
2021/07/18 06:59:10;;;;;;;12.10;3.15;;;;;;;;;;6312318;22;20373;-89
2021/07/18 07:01:45;;;;;;;10.80;3.25;;;;;;;;;;6317790;22;20038;-86
2021/07/18 07:04:12;;;;;;;13.38;3.40;;;;;;;;;;6312850;22;20043;-86
2021/07/18 07:06:38;;;;;;;14.23;4.05;;;;;;;;;;6319476;22;20065;-86
2021/07/18 07:09:04;;;;;;;18.35;4.57;;;;;;;;;;6315809;22;20027;-86
2021/07/18 07:11:31;;;;;;;6.82;2.88;;;;;;;;;;6313723;22;20076;-86
2021/07/18 07:13:58;;;;;;;10.43;2.80;;;;;;;;;;6312950;22;20023;-85
2021/07/18 07:16:25;;;;;;;12.65;3.88;;;;;;;;;;6311450;22;20065;-85
2021/07/18 07:18:52;;;;;;;13.13;3.80;;;;;;;;;;6309737;22;20104;-85
2021/07/18 07:21:18;;;;;;;9.10;2.58;;;;;;;;;;6309829;22;20079;-86
2021/07/18 07:23:45;;;;;;;8.50;2.63;;;;;;;;;;6308150;22;20204;-86
2021/07/18 07:26:11;;;;;;;9.20;2.72;;;;;;;;;;6309652;22;20103;-86
2021/07/18 07:28:41;;;;;;;6.80;2.42;;;;;;;;;;6309515;22;20305;-86
2021/07/18 07:31:08;;;;;;;9.88;3.08;;;;;;;;;;6307466;22;20042;-86
2021/07/18 07:33:35;;;;;;;11.65;2.83;;;;;;;;;;6307262;22;20023;-86
2021/07/18 07:36:03;;;;;;;11.70;2.72;;;;;;;;;;6308520;22;20102;-86
2021/07/18 07:38:32;;;;;;;8.95;2.30;;;;;;;;;;6306562;22;20027;-86
2021/07/18 07:40:59;;;;;;;5.70;2.15;;;;;;;;;;6309278;22;20043;-85
2021/07/18 07:43:26;;;;;;;6.68;2.75;;;;;;;;;;6308001;22;20065;-85
2021/07/18 07:45:54;;;;;;;8.15;3.00;;;;;;;;;;6306375;22;20211;-85
2021/07/18 07:48:20;;;;;;;9.40;3.13;;;;;;;;;;6308991;22;20023;-86
2021/07/18 07:50:47;;;;;;;9.23;2.50;;;;;;;;;;6310655;22;20088;-86
2021/07/18 07:53:14;;;;;;;5.40;2.28;;;;;;;;;;6308638;22;20031;-85
2021/07/18 07:55:41;;;;;;;9.48;1.90;;;;;;;;;;6307812;22;20031;-85
2021/07/18 07:58:08;;;;;;;5.20;1.80;;;;;;;;;;6307878;22;20027;-86
2021/07/18 08:00:39;;;;;;;7.50;2.25;;;;;;;;;;6310509;22;20019;-84
2021/07/18 08:03:06;;;;;;;7.85;2.22;;;;;;;;;;6309165;22;20253;-86
2021/07/18 08:05:32;;;;;;;6.43;1.55;;;;;;;;;;6309202;22;20051;-85
2021/07/18 08:07:59;;;;;;;6.28;1.67;;;;;;;;;;6305938;22;20023;-86
2021/07/18 08:10:26;;;;;;;7.60;2.20;;;;;;;;;;6307302;22;20230;-85
2021/07/18 08:12:56;;;;;;;7.85;2.65;;;;;;;;;;6306757;22;20023;-85
2021/07/18 08:15:23;;;;;;;9.02;3.30;;;;;;;;;;6306193;22;20016;-85
2021/07/18 08:17:51;;;;;;;9.43;2.83;;;;;;;;;;6307634;22;20368;-85
2021/07/18 08:20:19;;;;;;;6.68;2.42;;;;;;;;;;6306567;22;20084;-85
2021/07/18 08:22:49;;;;;;;8.07;2.63;;;;;;;;;;6302935;22;20019;-86
2021/07/18 08:25:18;;;;;;;11.02;2.58;;;;;;;;;;6306007;22;20088;-86
2021/07/18 08:27:45;;;;;;;8.80;3.13;;;;;;;;;;6305547;22;20401;-85
2021/07/18 08:30:12;;;;;;;11.43;3.75;;;;;;;;;;6305895;22;20059;-85
2021/07/18 08:32:39;;;;;;;8.30;2.83;;;;;;;;;;6302602;22;20037;-85
2021/07/18 08:35:06;;;;;;;10.48;3.47;;;;;;;;;;6305276;22;20236;-85
2021/07/18 08:37:50;;;;;;;11.48;3.72;;;;;;;;;;6303791;22;20023;-86
2021/07/18 08:40:20;;;;;;;8.05;2.03;;;;;;;;;;6305531;22;20053;-86
2021/07/18 08:42:47;;;;;;;4.68;1.58;;;;;;;;;;6305995;22;20456;-86
2021/07/18 08:45:13;;;;;;;8.98;1.77;;;;;;;;;;6307500;22;20027;-86
2021/07/18 08:47:40;;;;;;;8.15;1.92;;;;;;;;;;6320671;22;20132;-86
2021/07/18 08:50:11;;;;;;;9.32;1.85;;;;;;;;;;6320693;22;20031;-86
2021/07/18 08:52:39;;;;;;;7.35;1.80;;;;;;;;;;6305660;22;20136;-86
2021/07/18 08:55:06;;;;;;;4.93;1.70;;;;;;;;;;6305245;22;20148;-86
2021/07/18 08:57:37;;;;;;;7.50;2.35;;;;;;;;;;6304441;22;20030;-86
2021/07/18 09:00:05;;;;;;;8.88;2.25;;;;;;;;;;6304957;22;20031;-86
2021/07/18 09:02:33;;;;;;;7.80;2.40;;;;;;;;;;6307221;22;20031;-86
2021/07/18 09:05:03;;;;;;;7.82;2.00;;;;;;;;;;6307770;22;20438;-86
2021/07/18 09:07:41;;;;;;;7.68;2.22;;;;;;;;;;6307483;22;20027;-84
2021/07/18 09:10:07;;;;;;;8.57;2.63;;;;;;;;;;6308842;22;20408;-85
2021/07/18 09:12:34;;;;;;;6.13;2.05;;;;;;;;;;6305140;22;20045;-85
2021/07/18 09:15:01;;;;;;;8.68;1.92;;;;;;;;;;6306436;22;20035;-86
2021/07/18 09:17:32;;;;;;;10.57;2.22;;;;;;;;;;6307528;22;20027;-86
2021/07/18 09:20:10;;;;;;;8.10;2.85;;;;;;;;;;6310382;22;20030;-86
2021/07/18 09:22:37;;;;;;;4.47;2.20;;;;;;;;;;6309836;22;20023;-86
2021/07/18 09:25:04;;;;;;;10.25;2.40;;;;;;;;;;6305095;22;20026;-86
2021/07/18 09:27:34;;;;;;;13.00;2.60;;;;;;;;;;6301979;22;20023;-84
2021/07/18 09:30:11;;;;;;;8.10;2.00;;;;;;;;;;6304207;22;20185;-86
2021/07/18 09:32:40;;;;;;;6.95;2.10;;;;;;;;;;6304400;22;20105;-86
2021/07/18 09:35:09;;;;;;;7.97;2.17;;;;;;;;;;6305817;22;20023;-86
2021/07/18 09:37:39;;;;;;;9.23;2.28;;;;;;;;;;6305317;22;20024;-87
2021/07/18 09:40:06;;;;;;;12.35;2.28;;;;;;;;;;6305315;22;20068;-84
2021/07/18 09:42:35;;;;;;;7.40;2.55;;;;;;;;;;6306214;22;20189;-85
2021/07/18 09:45:04;;;;;;;10.88;2.85;;;;;;;;;;6305593;22;20037;-84
2021/07/18 09:47:31;;;;;;;9.00;3.05;;;;;;;;;;6304626;22;20396;-85
2021/07/18 09:49:57;;;;;;;14.60;3.40;;;;;;;;;;6305162;22;20035;-86
2021/07/18 09:52:28;;;;;;;7.43;2.80;;;;;;;;;;6305538;22;20133;-86
2021/07/18 09:54:56;;;;;;;8.30;2.17;;;;;;;;;;6308336;22;20054;-85
2021/07/18 09:57:27;;;;;;;9.52;2.45;;;;;;;;;;6306459;22;20326;-85
2021/07/18 09:59:54;;;;;;;11.65;2.55;;;;;;;;;;6305836;22;20027;-85
2021/07/18 10:02:25;;;;;;;9.55;2.00;;;;;;;;;;6304790;22;20023;-85
2021/07/18 10:04:58;;;;;;;6.60;1.90;;;;;;;;;;6305409;22;20027;-85
2021/07/18 10:07:33;;;;;;;7.53;1.85;;;;;;;;;;6305910;22;20023;-86
2021/07/18 10:10:00;;;;;;;7.20;2.08;;;;;;;;;;6306468;22;20058;-86
2021/07/18 10:12:27;;;;;;;6.28;1.90;;;;;;;;;;6308174;22;20100;-86
2021/07/18 10:14:54;;;;;;;6.35;1.98;;;;;;;;;;6310547;22;20024;-85
2021/07/18 10:17:24;;;;;;;6.15;1.50;;;;;;;;;;6309717;22;20023;-85
2021/07/18 10:19:50;;;;;;;6.13;1.70;;;;;;;;;;6323609;22;20038;-86
2021/07/18 10:22:18;;;;;;;5.43;1.30;;;;;;;;;;6324665;22;20030;-86
2021/07/18 10:24:48;;;;;;;8.10;1.45;;;;;;;;;;6324160;22;20015;-86
2021/07/18 10:27:19;;;;;;;4.57;1.10;;;;;;;;;;6315192;22;20055;-86
2021/07/18 10:29:46;;;;;;;3.92;1.27;;;;;;;;;;6304231;22;20086;-86
2021/07/18 10:32:15;;;;;;;9.18;1.90;;;;;;;;;;6306173;22;20031;-86
2021/07/18 10:34:42;;;;;;;6.93;2.08;;;;;;;;;;6306942;22;20278;-86
2021/07/18 10:37:10;;;;;;;7.45;1.42;;;;;;;;;;6306130;22;20379;-86
2021/07/18 10:39:44;;;;;;;2.97;1.25;;;;;;;;;;6306390;22;20023;-86
2021/07/18 10:42:36;;;;;;;9.20;1.95;;;;;;;;;;6302928;22;20123;-86
2021/07/18 10:45:27;;;;;;;5.72;1.45;;;;;;;;;;6306660;22;20023;-85
2021/07/18 10:48:01;;;;;;;4.78;1.17;;;;;;;;;;6307090;22;20031;-85
2021/07/18 10:50:50;;;;;;;5.20;1.10;;;;;;;;;;6308657;22;20030;-85
2021/07/18 10:53:30;;;;;;;4.65;1.52;;;;;;;;;;6318397;22;20024;-85
2021/07/18 10:55:59;;;;;;;3.85;1.27;;;;;;;;;;6311706;22;20117;-85
2021/07/18 10:58:45;;;;;;;7.97;1.23;;;;;;;;;;6309397;22;20049;-85
2021/07/18 11:01:12;;;;;;;3.72;1.02;;;;;;;;;;6311655;22;20033;-85
2021/07/18 11:03:44;;;;;;;61.95;10.02;;;;;;;;;;6305210;22;20026;-86
2021/07/18 11:06:48;;;;;;;3.13;1.10;;;;;;;;;;6311699;22;20026;-86
2021/07/18 11:09:46;;;;;;;5.70;1.33;;;;;;;;;;6323696;22;20020;-86
2021/07/18 11:12:45;;;;;;;6.50;1.25;;;;;;;;;;6323287;22;20031;-85
2021/07/18 11:15:33;;;;;;;6.10;1.23;;;;;;;;;;6317699;22;20193;-85
2021/07/18 11:18:36;;;;;;;3.50;0.95;;;;;;;;;;6304573;22;20015;-85
2021/07/18 11:21:46;;;;;;;3.45;0.82;;;;;;;;;;6306033;22;20098;-86
2021/07/18 11:25:04;;;;;;;1.67;0.75;;;;;;;;;;6308301;22;20517;-86
2021/07/18 11:27:53;;;;;;;9.90;1.30;;;;;;;;;;6337419;22;20062;-86
2021/07/18 11:31:18;;;;;;;3.90;1.50;;;;;;;;;;6310683;22;20103;-85
2021/07/18 11:37:25;;;;;;;3.95;1.25;;;;;;;;;;6321146;22;20063;-86
2021/07/18 11:40:20;;;;;;;2.50;0.85;;;;;;;;;;6315496;22;20026;-86
2021/07/18 11:43:14;;;;;;;4.10;1.60;;;;;;;;;;6312848;22;20007;-86
2021/07/18 11:45:57;;;;;;;5.25;1.30;;;;;;;;;;6290902;22;20011;-86
2021/07/18 11:48:43;;;;;;;;;;;;;;;;;;6310002;22;20022;-87
2021/07/18 11:51:52;;;;;;;;;;;;;;;;;;;;;
2021/07/18 11:55:12;;;;;;;8.30;1.50;;;;;;;;;;6236786;23;20413;-86
2021/07/18 12:04:35;;;;;;;4.25;2.47;;;;;;;;;;6243695;23;20010;-86
2021/07/18 12:07:36;;;;;;;3.28;1.27;;;;;;;;;;6251350;23;20147;-85
2021/07/18 12:10:41;;;;;;;7.13;0.98;;;;;;;;;;6218131;23;20063;-87
2021/07/18 12:13:37;;;;;;;2.10;1.08;;;;;;;;;;6231806;23;20024;-85
2021/07/18 12:16:17;;;;;;;2.10;0.88;;;;;;;;;;6234481;23;20213;-85
2021/07/18 12:19:07;;;;;;;5.88;1.00;;;;;;;;;;6232446;23;20035;-85
2021/07/18 12:21:55;;;;;;;3.22;1.08;;;;;;;;;;6228880;23;20024;-86
2021/07/18 12:24:40;;;;;;;4.22;1.25;;;;;;;;;;6230289;23;20044;-86
2021/07/18 12:27:27;;;;;;;3.92;1.20;;;;;;;;;;6248112;23;20054;-87
2021/07/18 12:30:10;;;;;;;4.28;1.02;;;;;;;;;;6218740;23;20024;-86
2021/07/18 12:32:43;;;;;;;3.08;1.15;;;;;;;;;;6303115;22;20023;-87
2021/07/18 12:38:42;;;;;;;;;;;;;;;;;;6309768;22;20080;-87
2021/07/18 12:41:45;;;;;;;3.35;1.00;;;;;;;;;;6309610;22;19915;-87
2021/07/18 12:44:53;;;;;;;4.45;1.08;;;;;;;;;;6313534;22;20019;-87
2021/07/18 12:47:36;;;;;;;4.57;0.75;;;;;;;;;;6307560;22;20120;-84
2021/07/18 12:50:22;;;;;;;3.30;1.13;;;;;;;;;;6307287;22;20032;-86
2021/07/18 12:53:18;;;;;;;7.32;1.45;;;;;;;;;;6302519;22;20152;-87
2021/07/18 12:56:03;;;;;;;5.80;1.10;;;;;;;;;;6309175;22;20106;-87
2021/07/18 13:02:16;;;;;;;3.55;0.90;;;;;;;;;;6306064;22;20023;-87
2021/07/18 13:08:50;;;;;;;4.40;1.70;;;;;;;;;;6296528;22;20034;-87
2021/07/18 13:11:37;;;;;;;4.93;1.40;;;;;;;;;;6304728;22;20476;-86
2021/07/18 13:14:25;;;;;;;4.63;1.20;;;;;;;;;;6304604;22;20037;-86
2021/07/18 13:17:23;;;;;;;3.03;1.10;;;;;;;;;;6306693;22;20088;-87
2021/07/18 13:20:07;;;;;;;2.92;1.13;;;;;;;;;;6301543;22;20046;-87
2021/07/18 13:22:49;;;;;;;4.65;1.60;;;;;;;;;;6305350;22;20094;-86
2021/07/18 13:25:31;;;;;;;2.53;1.10;;;;;;;;;;6307459;22;20074;-86
2021/07/18 13:28:01;;;;;;;4.20;1.35;;;;;;;;;;6305760;22;20023;-87
2021/07/18 13:30:38;;;;;;;3.63;1.05;;;;;;;;;;6304983;22;20023;-86
2021/07/18 13:33:21;;;;;;;4.90;1.65;;;;;;;;;;6303671;22;20237;-86
2021/07/18 13:35:49;;;;;;;2.65;1.40;;;;;;;;;;6304464;22;20088;-86
2021/07/18 13:38:35;;;;;;;5.57;1.30;;;;;;;;;;6301984;22;20023;-87
2021/07/18 13:41:10;;;;;;;1.77;1.10;;;;;;;;;;6301746;22;20034;-86
2021/07/18 13:43:42;;;;;;;6.30;1.48;;;;;;;;;;6301753;22;20418;-87
2021/07/18 13:46:09;;;;;;;6.32;1.42;;;;;;;;;;6301915;22;20027;-86
2021/07/18 13:48:38;;;;;;;2.10;1.13;;;;;;;;;;6301957;22;20027;-87
2021/07/18 13:51:09;;;;;;;3.90;1.20;;;;;;;;;;6301356;22;20035;-86
2021/07/18 13:53:36;;;;;;;8.32;1.50;;;;;;;;;;6301685;22;20039;-87
2021/07/18 13:56:03;;;;;;;2.30;1.20;;;;;;;;;;6302433;22;20023;-87
2021/07/18 13:58:37;;;;;;;5.05;1.45;;;;;;;;;;6301135;22;20298;-87
2021/07/18 14:01:04;;;;;;;3.08;1.27;;;;;;;;;;6301414;22;20058;-85
2021/07/18 14:03:31;;;;;;;6.43;1.42;;;;;;;;;;6302510;22;20274;-86
2021/07/18 14:05:58;;;;;;;5.97;1.27;;;;;;;;;;6308525;22;20042;-88
2021/07/18 14:08:29;;;;;;;3.30;1.10;;;;;;;;;;6304868;22;20022;-86
2021/07/18 14:10:56;;;;;;;6.38;1.42;;;;;;;;;;6302768;22;20450;-86
2021/07/18 14:13:23;;;;;;;4.15;1.20;;;;;;;;;;6304482;22;20324;-87
2021/07/18 14:15:50;;;;;;;2.17;0.73;;;;;;;;;;6305406;22;20308;-88
2021/07/18 14:18:17;;;;;;;7.68;1.17;;;;;;;;;;6302766;22;20301;-86
2021/07/18 14:20:43;;;;;;;2.42;1.08;;;;;;;;;;6306708;22;20038;-87
2021/07/18 14:23:12;;;;;;;1.88;1.40;;;;;;;;;;6306681;22;20019;-86
2021/07/18 14:25:50;;;;;;;6.35;1.42;;;;;;;;;;6302756;22;20023;-86
2021/07/18 14:28:17;;;;;;;5.18;1.65;;;;;;;;;;6287129;22;20168;-86
2021/07/18 14:30:46;;;;;;;4.90;1.33;;;;;;;;;;6306823;22;20023;-86
2021/07/18 14:33:17;;;;;;;4.68;1.00;;;;;;;;;;6284037;22;20027;-87
2021/07/18 14:35:47;;;;;;;5.45;1.63;;;;;;;;;;6286884;22;20019;-87
2021/07/18 14:38:13;;;;;;;5.53;1.60;;;;;;;;;;6309643;22;20034;-86
2021/07/18 14:40:44;;;;;;;5.40;1.40;;;;;;;;;;6309182;22;20042;-86
2021/07/18 14:43:12;;;;;;;4.85;1.30;;;;;;;;;;6278516;22;20023;-87
2021/07/18 14:45:39;;;;;;;3.03;1.40;;;;;;;;;;6304480;22;20027;-86
2021/07/18 14:48:06;;;;;;;5.68;1.70;;;;;;;;;;6304302;22;20124;-87
2021/07/18 14:50:34;;;;;;;7.70;2.20;;;;;;;;;;6306054;22;20023;-86
2021/07/18 14:53:05;;;;;;;7.93;1.80;;;;;;;;;;6280857;22;20042;-87
2021/07/18 14:55:33;;;;;;;5.05;1.75;;;;;;;;;;6279431;22;20078;-86
2021/07/18 14:58:00;;;;;;;4.32;1.40;;;;;;;;;;6277460;22;20097;-85
2021/07/18 15:00:33;;;;;;;7.50;1.52;;;;;;;;;;6279285;22;20023;-86
2021/07/18 15:03:01;;;;;;;3.65;1.30;;;;;;;;;;6278034;22;20401;-86
2021/07/18 15:05:33;;;;;;;3.25;1.52;;;;;;;;;;6280179;22;20054;-86
2021/07/18 15:08:02;;;;;;;7.10;1.45;;;;;;;;;;6307390;22;20061;-87
2021/07/18 15:10:36;;;;;;;3.88;1.60;;;;;;;;;;6281434;22;20224;-87
2021/07/18 15:13:02;;;;;;;3.88;1.65;;;;;;;;;;6308616;22;20179;-86
2021/07/18 15:15:29;;;;;;;5.70;1.60;;;;;;;;;;6310030;22;20029;-87
2021/07/18 15:17:56;;;;;;;7.10;1.95;;;;;;;;;;6283803;22;20027;-87